<?xml version="1.0" encoding="UTF-8" standalone="no" ?>
<gpx xmlns="http://www.topografix.com/GPX/1/1" xmlns:xsi="http://www.w3.org/2001/XMLSchema-instance" xsi:schemaLocation="http://www.topografix.com/GPX/1/1 http://www.topografix.com/GPX/1/1/gpx.xsd" version="1.1" creator="VisuGPX - https://www.visugpx.com">
  <metadata>
    <name>J2 - La Romieu - La Romieu via Condom</name>
    <desc><![CDATA[Circuit Gers]]></desc>
  </metadata>
  <trk>
    <name><![CDATA[J2 - La Romieu-La Roumieu via Condom]]></name>
    <trkseg>
      <trkpt lat="43.98322" lon="0.49767">
        <ele>186</ele>
        <time>2014-03-12T21:54:02+01:00</time>
      </trkpt>
      <trkpt lat="43.98168" lon="0.49338">
        <ele>193</ele>
        <time>2014-03-12T21:54:07+01:00</time>
      </trkpt>
      <trkpt lat="43.98223" lon="0.48703">
        <ele>209</ele>
        <time>2014-03-12T21:54:12+01:00</time>
      </trkpt>
      <trkpt lat="43.98186" lon="0.48454">
        <ele>212</ele>
        <time>2014-03-12T21:54:17+01:00</time>
      </trkpt>
      <trkpt lat="43.98297" lon="0.48205">
        <ele>206</ele>
        <time>2014-03-12T21:54:22+01:00</time>
      </trkpt>
      <trkpt lat="43.98334" lon="0.47853">
        <ele>180</ele>
        <time>2014-03-12T21:54:27+01:00</time>
      </trkpt>
      <trkpt lat="43.98594" lon="0.47784">
        <ele>180</ele>
        <time>2014-03-12T21:54:32+01:00</time>
      </trkpt>
      <trkpt lat="43.98625" lon="0.47595">
        <ele>178</ele>
        <time>2014-03-12T21:54:37+01:00</time>
      </trkpt>
      <trkpt lat="43.98526" lon="0.47252">
        <ele>165</ele>
        <time>2014-03-12T21:54:42+01:00</time>
      </trkpt>
      <trkpt lat="43.98458" lon="0.46797">
        <ele>160</ele>
        <time>2014-03-12T21:54:47+01:00</time>
      </trkpt>
      <trkpt lat="43.98279" lon="0.46703">
        <ele>139</ele>
        <time>2014-03-12T21:54:52+01:00</time>
      </trkpt>
      <trkpt lat="43.98161" lon="0.46617">
        <ele>138</ele>
        <time>2014-03-12T21:54:57+01:00</time>
      </trkpt>
      <trkpt lat="43.98069" lon="0.46154">
        <ele>165</ele>
        <time>2014-03-12T21:55:02+01:00</time>
      </trkpt>
      <trkpt lat="43.97828" lon="0.46076">
        <ele>138</ele>
        <time>2014-03-12T21:55:07+01:00</time>
      </trkpt>
      <trkpt lat="43.97507" lon="0.45948">
        <ele>119</ele>
        <time>2014-03-12T21:55:12+01:00</time>
      </trkpt>
      <trkpt lat="43.9726" lon="0.4599">
        <ele>151</ele>
        <time>2014-03-12T21:55:17+01:00</time>
      </trkpt>
      <trkpt lat="43.97136" lon="0.45939">
        <ele>166</ele>
        <time>2014-03-12T21:55:22+01:00</time>
      </trkpt>
      <trkpt lat="43.97074" lon="0.45604">
        <ele>142</ele>
        <time>2014-03-12T21:55:27+01:00</time>
      </trkpt>
      <trkpt lat="43.97074" lon="0.4533">
        <ele>108</ele>
        <time>2014-03-12T21:55:32+01:00</time>
      </trkpt>
      <trkpt lat="43.97062" lon="0.45184">
        <ele>106</ele>
        <time>2014-03-12T21:55:37+01:00</time>
      </trkpt>
      <trkpt lat="43.97" lon="0.45046">
        <ele>113</ele>
        <time>2014-03-12T21:55:42+01:00</time>
      </trkpt>
      <trkpt lat="43.96895" lon="0.45012">
        <ele>111</ele>
        <time>2014-03-12T21:55:47+01:00</time>
      </trkpt>
      <trkpt lat="43.96815" lon="0.44969">
        <ele>111</ele>
        <time>2014-03-12T21:55:52+01:00</time>
      </trkpt>
      <trkpt lat="43.96698" lon="0.449">
        <ele>119</ele>
        <time>2014-03-12T21:55:57+01:00</time>
      </trkpt>
      <trkpt lat="43.96481" lon="0.44669">
        <ele>150</ele>
        <time>2014-03-12T21:56:02+01:00</time>
      </trkpt>
      <trkpt lat="43.96475" lon="0.4436">
        <ele>159</ele>
        <time>2014-03-12T21:56:07+01:00</time>
      </trkpt>
      <trkpt lat="43.96413" lon="0.44231">
        <ele>166</ele>
        <time>2014-03-12T21:56:12+01:00</time>
      </trkpt>
      <trkpt lat="43.96438" lon="0.44094">
        <ele>170</ele>
        <time>2014-03-12T21:56:17+01:00</time>
      </trkpt>
      <trkpt lat="43.96172" lon="0.43956">
        <ele>157</ele>
        <time>2014-03-12T21:56:22+01:00</time>
      </trkpt>
      <trkpt lat="43.95901" lon="0.44008">
        <ele>161</ele>
        <time>2014-03-12T21:56:27+01:00</time>
      </trkpt>
      <trkpt lat="43.95888" lon="0.43424">
        <ele>129</ele>
        <time>2014-03-12T21:56:32+01:00</time>
      </trkpt>
      <trkpt lat="43.95752" lon="0.43355">
        <ele>136</ele>
        <time>2014-03-12T21:56:37+01:00</time>
      </trkpt>
      <trkpt lat="43.96129" lon="0.43046">
        <ele>144</ele>
        <time>2014-03-12T21:56:42+01:00</time>
      </trkpt>
      <trkpt lat="43.9629" lon="0.42892">
        <ele>146</ele>
        <time>2014-03-12T21:56:47+01:00</time>
      </trkpt>
      <trkpt lat="43.96407" lon="0.42755">
        <ele>143</ele>
        <time>2014-03-12T21:56:52+01:00</time>
      </trkpt>
      <trkpt lat="43.96457" lon="0.4254">
        <ele>144</ele>
        <time>2014-03-12T21:56:57+01:00</time>
      </trkpt>
      <trkpt lat="43.96296" lon="0.42042">
        <ele>138</ele>
        <time>2014-03-12T21:57:02+01:00</time>
      </trkpt>
      <trkpt lat="43.96271" lon="0.41665">
        <ele>146</ele>
        <time>2014-03-12T21:57:07+01:00</time>
      </trkpt>
      <trkpt lat="43.96308" lon="0.41433">
        <ele>148</ele>
        <time>2014-03-12T21:57:12+01:00</time>
      </trkpt>
      <trkpt lat="43.96043" lon="0.40085">
        <ele>140</ele>
        <time>2014-03-12T21:57:17+01:00</time>
      </trkpt>
      <trkpt lat="43.9595" lon="0.3927">
        <ele>146</ele>
        <time>2014-03-12T21:57:22+01:00</time>
      </trkpt>
      <trkpt lat="43.95938" lon="0.38231">
        <ele>106</ele>
        <time>2014-03-12T21:57:27+01:00</time>
      </trkpt>
      <trkpt lat="43.95641" lon="0.37622">
        <ele>89</ele>
        <time>2014-03-12T21:57:32+01:00</time>
      </trkpt>
      <trkpt lat="43.96012" lon="0.38291">
        <ele>108</ele>
        <time>2014-03-12T21:57:37+01:00</time>
      </trkpt>
      <trkpt lat="43.96413" lon="0.38489">
        <ele>103</ele>
        <time>2014-03-12T21:57:42+01:00</time>
      </trkpt>
      <trkpt lat="43.96623" lon="0.38866">
        <ele>114</ele>
        <time>2014-03-12T21:57:47+01:00</time>
      </trkpt>
      <trkpt lat="43.96821" lon="0.38978">
        <ele>137</ele>
        <time>2014-03-12T21:57:52+01:00</time>
      </trkpt>
      <trkpt lat="43.97173" lon="0.39278">
        <ele>155</ele>
        <time>2014-03-12T21:57:57+01:00</time>
      </trkpt>
      <trkpt lat="43.97229" lon="0.39175">
        <ele>152</ele>
        <time>2014-03-12T21:58:02+01:00</time>
      </trkpt>
      <trkpt lat="43.97352" lon="0.39193">
        <ele>154</ele>
        <time>2014-03-12T21:58:07+01:00</time>
      </trkpt>
      <trkpt lat="43.97822" lon="0.39218">
        <ele>141</ele>
        <time>2014-03-12T21:58:12+01:00</time>
      </trkpt>
      <trkpt lat="43.97908" lon="0.39536">
        <ele>122</ele>
        <time>2014-03-12T21:58:17+01:00</time>
      </trkpt>
      <trkpt lat="43.98044" lon="0.39613">
        <ele>119</ele>
        <time>2014-03-12T21:58:22+01:00</time>
      </trkpt>
      <trkpt lat="43.98192" lon="0.39957">
        <ele>139</ele>
        <time>2014-03-12T21:58:27+01:00</time>
      </trkpt>
      <trkpt lat="43.98402" lon="0.40137">
        <ele>157</ele>
        <time>2014-03-12T21:58:32+01:00</time>
      </trkpt>
      <trkpt lat="43.98686" lon="0.40188">
        <ele>153</ele>
        <time>2014-03-12T21:58:37+01:00</time>
      </trkpt>
      <trkpt lat="43.98835" lon="0.40377">
        <ele>168</ele>
        <time>2014-03-12T21:58:42+01:00</time>
      </trkpt>
      <trkpt lat="43.98952" lon="0.40583">
        <ele>157</ele>
        <time>2014-03-12T21:58:47+01:00</time>
      </trkpt>
      <trkpt lat="43.99063" lon="0.40635">
        <ele>147</ele>
        <time>2014-03-12T21:58:52+01:00</time>
      </trkpt>
      <trkpt lat="43.9923" lon="0.40901">
        <ele>153</ele>
        <time>2014-03-12T21:58:57+01:00</time>
      </trkpt>
      <trkpt lat="43.99569" lon="0.40995">
        <ele>164</ele>
        <time>2014-03-12T21:59:02+01:00</time>
      </trkpt>
      <trkpt lat="43.99872" lon="0.41115">
        <ele>177</ele>
        <time>2014-03-12T21:59:07+01:00</time>
      </trkpt>
      <trkpt lat="44.00088" lon="0.4133">
        <ele>172</ele>
        <time>2014-03-12T21:59:12+01:00</time>
      </trkpt>
      <trkpt lat="44.001" lon="0.41819">
        <ele>159</ele>
        <time>2014-03-12T21:59:17+01:00</time>
      </trkpt>
      <trkpt lat="43.99934" lon="0.42489">
        <ele>142</ele>
        <time>2014-03-12T21:59:22+01:00</time>
      </trkpt>
      <trkpt lat="43.99748" lon="0.43004">
        <ele>119</ele>
        <time>2014-03-12T21:59:27+01:00</time>
      </trkpt>
      <trkpt lat="43.996" lon="0.43149">
        <ele>109</ele>
        <time>2014-03-12T21:59:32+01:00</time>
      </trkpt>
      <trkpt lat="43.99563" lon="0.43639">
        <ele>98</ele>
        <time>2014-03-12T21:59:37+01:00</time>
      </trkpt>
      <trkpt lat="43.99613" lon="0.43862">
        <ele>101</ele>
        <time>2014-03-12T21:59:42+01:00</time>
      </trkpt>
      <trkpt lat="43.99656" lon="0.43965">
        <ele>99</ele>
        <time>2014-03-12T21:59:47+01:00</time>
      </trkpt>
      <trkpt lat="43.99798" lon="0.44085">
        <ele>115</ele>
        <time>2014-03-12T21:59:52+01:00</time>
      </trkpt>
      <trkpt lat="43.99835" lon="0.44205">
        <ele>133</ele>
        <time>2014-03-12T21:59:57+01:00</time>
      </trkpt>
      <trkpt lat="44.00051" lon="0.44282">
        <ele>121</ele>
        <time>2014-03-12T22:00:02+01:00</time>
      </trkpt>
      <trkpt lat="44.00076" lon="0.4442">
        <ele>122</ele>
        <time>2014-03-12T22:00:07+01:00</time>
      </trkpt>
      <trkpt lat="44.00218" lon="0.44857">
        <ele>117</ele>
        <time>2014-03-12T22:00:12+01:00</time>
      </trkpt>
      <trkpt lat="44.00341" lon="0.44857">
        <ele>110</ele>
        <time>2014-03-12T22:00:17+01:00</time>
      </trkpt>
      <trkpt lat="44.00477" lon="0.44995">
        <ele>124</ele>
        <time>2014-03-12T22:00:22+01:00</time>
      </trkpt>
      <trkpt lat="44.00619" lon="0.45029">
        <ele>149</ele>
        <time>2014-03-12T22:00:27+01:00</time>
      </trkpt>
      <trkpt lat="44.00749" lon="0.45029">
        <ele>174</ele>
        <time>2014-03-12T22:00:32+01:00</time>
      </trkpt>
      <trkpt lat="44.00829" lon="0.45175">
        <ele>178</ele>
        <time>2014-03-12T22:00:37+01:00</time>
      </trkpt>
      <trkpt lat="44.00817" lon="0.4533">
        <ele>173</ele>
        <time>2014-03-12T22:00:42+01:00</time>
      </trkpt>
      <trkpt lat="44.00736" lon="0.4551">
        <ele>163</ele>
        <time>2014-03-12T22:00:47+01:00</time>
      </trkpt>
      <trkpt lat="44.00749" lon="0.45853">
        <ele>165</ele>
        <time>2014-03-12T22:00:52+01:00</time>
      </trkpt>
      <trkpt lat="44.00718" lon="0.46171">
        <ele>173</ele>
        <time>2014-03-12T22:00:57+01:00</time>
      </trkpt>
      <trkpt lat="44.00576" lon="0.46608">
        <ele>166</ele>
        <time>2014-03-12T22:01:02+01:00</time>
      </trkpt>
      <trkpt lat="44.0052" lon="0.46814">
        <ele>171</ele>
        <time>2014-03-12T22:01:07+01:00</time>
      </trkpt>
      <trkpt lat="44.00323" lon="0.46874">
        <ele>180</ele>
        <time>2014-03-12T22:01:12+01:00</time>
      </trkpt>
      <trkpt lat="44.00144" lon="0.47269">
        <ele>196</ele>
        <time>2014-03-12T22:01:17+01:00</time>
      </trkpt>
      <trkpt lat="44.00286" lon="0.47441">
        <ele>205</ele>
        <time>2014-03-12T22:01:22+01:00</time>
      </trkpt>
      <trkpt lat="44.00193" lon="0.47492">
        <ele>207</ele>
        <time>2014-03-12T22:01:27+01:00</time>
      </trkpt>
      <trkpt lat="44.0023" lon="0.47604">
        <ele>207</ele>
        <time>2014-03-12T22:01:32+01:00</time>
      </trkpt>
      <trkpt lat="44.00082" lon="0.47776">
        <ele>201</ele>
        <time>2014-03-12T22:01:37+01:00</time>
      </trkpt>
      <trkpt lat="44.00045" lon="0.48334">
        <ele>223</ele>
        <time>2014-03-12T22:01:42+01:00</time>
      </trkpt>
      <trkpt lat="43.99928" lon="0.48428">
        <ele>217</ele>
        <time>2014-03-12T22:01:47+01:00</time>
      </trkpt>
      <trkpt lat="43.99681" lon="0.48334">
        <ele>198</ele>
        <time>2014-03-12T22:01:52+01:00</time>
      </trkpt>
      <trkpt lat="43.99532" lon="0.48497">
        <ele>195</ele>
        <time>2014-03-12T22:01:57+01:00</time>
      </trkpt>
      <trkpt lat="43.99477" lon="0.48746">
        <ele>191</ele>
        <time>2014-03-12T22:02:02+01:00</time>
      </trkpt>
      <trkpt lat="43.99384" lon="0.48977">
        <ele>185</ele>
        <time>2014-03-12T22:02:07+01:00</time>
      </trkpt>
      <trkpt lat="43.99545" lon="0.49166">
        <ele>192</ele>
        <time>2014-03-12T22:02:12+01:00</time>
      </trkpt>
      <trkpt lat="43.99353" lon="0.49192">
        <ele>187</ele>
        <time>2014-03-12T22:02:17+01:00</time>
      </trkpt>
      <trkpt lat="43.99224" lon="0.49132">
        <ele>183</ele>
        <time>2014-03-12T22:02:22+01:00</time>
      </trkpt>
      <trkpt lat="43.991" lon="0.49192">
        <ele>182</ele>
        <time>2014-03-12T22:02:27+01:00</time>
      </trkpt>
      <trkpt lat="43.98903" lon="0.49286">
        <ele>172</ele>
        <time>2014-03-12T22:02:32+01:00</time>
      </trkpt>
      <trkpt lat="43.9876" lon="0.49527">
        <ele>159</ele>
        <time>2014-03-12T22:02:37+01:00</time>
      </trkpt>
      <trkpt lat="43.98736" lon="0.4957">
        <ele>158</ele>
        <time>2014-03-12T22:02:42+01:00</time>
      </trkpt>
      <trkpt lat="43.98316" lon="0.49776">
        <ele>187</ele>
        <time>2014-03-12T22:02:47+01:00</time>
      </trkpt>
    </trkseg>
  </trk>
</gpx>